sensor_id;sensor_type;location;lat;lon;timestamp;P1;durP1;ratioP1;P2;durP2;ratioP2
73729;SDS011;62036;48.128;16.458;2023-03-31T00:01:47;1.20;;;0.57;;
73729;SDS011;62036;48.128;16.458;2023-03-31T00:04:13;0.68;;;0.40;;
73729;SDS011;62036;48.128;16.458;2023-03-31T00:06:40;0.70;;;0.40;;
73729;SDS011;62036;48.128;16.458;2023-03-31T00:09:07;0.85;;;0.38;;
73729;SDS011;62036;48.128;16.458;2023-03-31T00:11:33;1.83;;;0.80;;
73729;SDS011;62036;48.128;16.458;2023-03-31T00:14:00;1.15;;;0.60;;
73729;SDS011;62036;48.128;16.458;2023-03-31T00:16:26;2.58;;;0.77;;
73729;SDS011;62036;48.128;16.458;2023-03-31T00:18:52;1.02;;;0.50;;
73729;SDS011;62036;48.128;16.458;2023-03-31T00:21:20;0.38;;;0.22;;
73729;SDS011;62036;48.128;16.458;2023-03-31T00:23:50;1.90;;;0.65;;
73729;SDS011;62036;48.128;16.458;2023-03-31T00:26:16;2.50;;;0.63;;
73729;SDS011;62036;48.128;16.458;2023-03-31T00:28:42;0.60;;;0.60;;
73729;SDS011;62036;48.128;16.458;2023-03-31T00:31:08;1.55;;;0.47;;
73729;SDS011;62036;48.128;16.458;2023-03-31T00:33:34;1.73;;;0.60;;
73729;SDS011;62036;48.128;16.458;2023-03-31T00:36:00;1.00;;;0.52;;
73729;SDS011;62036;48.128;16.458;2023-03-31T00:38:30;1.40;;;0.70;;
73729;SDS011;62036;48.128;16.458;2023-03-31T00:40:57;1.40;;;0.65;;
73729;SDS011;62036;48.128;16.458;2023-03-31T00:43:27;1.27;;;0.60;;
73729;SDS011;62036;48.128;16.458;2023-03-31T00:45:55;1.58;;;0.70;;
73729;SDS011;62036;48.128;16.458;2023-03-31T00:48:24;1.58;;;0.70;;
73729;SDS011;62036;48.128;16.458;2023-03-31T00:50:55;0.75;;;0.52;;
73729;SDS011;62036;48.128;16.458;2023-03-31T00:53:23;1.77;;;0.55;;
73729;SDS011;62036;48.128;16.458;2023-03-31T00:55:52;1.63;;;0.82;;
73729;SDS011;62036;48.128;16.458;2023-03-31T00:58:19;1.13;;;0.70;;
73729;SDS011;62036;48.128;16.458;2023-03-31T01:00:48;2.05;;;0.70;;
73729;SDS011;62036;48.128;16.458;2023-03-31T01:03:17;2.63;;;1.30;;
73729;SDS011;62036;48.128;16.458;2023-03-31T01:05:47;0.63;;;0.60;;
73729;SDS011;62036;48.128;16.458;2023-03-31T01:08:15;3.05;;;0.68;;
73729;SDS011;62036;48.128;16.458;2023-03-31T01:10:44;2.83;;;0.90;;
73729;SDS011;62036;48.128;16.458;2023-03-31T01:13:12;1.63;;;0.70;;
73729;SDS011;62036;48.128;16.458;2023-03-31T01:15:39;1.52;;;1.08;;
73729;SDS011;62036;48.128;16.458;2023-03-31T01:18:06;2.22;;;0.95;;
73729;SDS011;62036;48.128;16.458;2023-03-31T01:20:50;1.80;;;1.23;;
73729;SDS011;62036;48.128;16.458;2023-03-31T01:36:17;2.22;;;1.20;;
73729;SDS011;62036;48.128;16.458;2023-03-31T01:53:54;2.85;;;1.75;;
73729;SDS011;62036;48.128;16.458;2023-03-31T01:56:31;4.18;;;1.30;;
73729;SDS011;62036;48.128;16.458;2023-03-31T02:01:55;3.63;;;1.70;;
73729;SDS011;62036;48.128;16.458;2023-03-31T02:04:25;3.55;;;1.45;;
73729;SDS011;62036;48.128;16.458;2023-03-31T02:06:56;2.25;;;1.33;;
73729;SDS011;62036;48.128;16.458;2023-03-31T02:09:25;1.55;;;1.33;;
73729;SDS011;62036;48.128;16.458;2023-03-31T02:11:53;3.35;;;1.17;;
73729;SDS011;62036;48.128;16.458;2023-03-31T02:14:21;2.83;;;1.50;;
73729;SDS011;62036;48.128;16.458;2023-03-31T02:16:49;1.73;;;1.45;;
73729;SDS011;62036;48.128;16.458;2023-03-31T02:19:17;1.98;;;1.38;;
73729;SDS011;62036;48.128;16.458;2023-03-31T02:21:48;2.17;;;1.30;;
73729;SDS011;62036;48.128;16.458;2023-03-31T02:24:15;4.38;;;1.55;;
73729;SDS011;62036;48.128;16.458;2023-03-31T02:26:43;3.38;;;1.80;;
73729;SDS011;62036;48.128;16.458;2023-03-31T02:29:10;2.22;;;2.03;;
73729;SDS011;62036;48.128;16.458;2023-03-31T02:31:54;2.35;;;1.65;;
73729;SDS011;62036;48.128;16.458;2023-03-31T02:34:22;2.20;;;1.60;;
73729;SDS011;62036;48.128;16.458;2023-03-31T02:36:48;2.78;;;1.50;;
73729;SDS011;62036;48.128;16.458;2023-03-31T02:39:15;3.83;;;1.60;;
73729;SDS011;62036;48.128;16.458;2023-03-31T02:41:42;1.95;;;1.58;;
73729;SDS011;62036;48.128;16.458;2023-03-31T02:44:09;3.67;;;1.70;;
73729;SDS011;62036;48.128;16.458;2023-03-31T02:46:35;3.75;;;1.85;;
73729;SDS011;62036;48.128;16.458;2023-03-31T02:49:02;2.03;;;1.30;;
73729;SDS011;62036;48.128;16.458;2023-03-31T03:01:29;3.10;;;1.85;;
73729;SDS011;62036;48.128;16.458;2023-03-31T03:04:10;3.60;;;1.80;;
73729;SDS011;62036;48.128;16.458;2023-03-31T03:14:25;3.17;;;1.73;;
73729;SDS011;62036;48.128;16.458;2023-03-31T03:16:54;2.08;;;1.80;;
73729;SDS011;62036;48.128;16.458;2023-03-31T03:19:22;4.00;;;1.88;;
73729;SDS011;62036;48.128;16.458;2023-03-31T03:21:48;2.65;;;1.83;;
73729;SDS011;62036;48.128;16.458;2023-03-31T03:24:15;2.88;;;2.05;;
73729;SDS011;62036;48.128;16.458;2023-03-31T03:26:42;3.25;;;1.80;;
73729;SDS011;62036;48.128;16.458;2023-03-31T03:29:09;2.80;;;2.15;;
73729;SDS011;62036;48.128;16.458;2023-03-31T03:31:37;3.42;;;1.63;;
73729;SDS011;62036;48.128;16.458;2023-03-31T03:34:03;3.22;;;1.60;;
73729;SDS011;62036;48.128;16.458;2023-03-31T03:36:30;3.95;;;1.90;;
73729;SDS011;62036;48.128;16.458;2023-03-31T03:38:57;4.18;;;1.90;;
73729;SDS011;62036;48.128;16.458;2023-03-31T03:41:22;3.55;;;1.52;;
73729;SDS011;62036;48.128;16.458;2023-03-31T03:43:49;4.05;;;1.88;;
73729;SDS011;62036;48.128;16.458;2023-03-31T03:46:15;4.28;;;2.38;;
73729;SDS011;62036;48.128;16.458;2023-03-31T03:48:41;2.92;;;2.15;;
73729;SDS011;62036;48.128;16.458;2023-03-31T03:51:07;2.80;;;2.20;;
73729;SDS011;62036;48.128;16.458;2023-03-31T03:53:33;3.13;;;2.45;;
73729;SDS011;62036;48.128;16.458;2023-03-31T03:55:59;3.00;;;1.73;;
73729;SDS011;62036;48.128;16.458;2023-03-31T03:58:25;2.78;;;2.03;;
73729;SDS011;62036;48.128;16.458;2023-03-31T04:00:51;3.47;;;2.00;;
73729;SDS011;62036;48.128;16.458;2023-03-31T04:03:17;4.00;;;1.90;;
73729;SDS011;62036;48.128;16.458;2023-03-31T04:05:43;4.70;;;2.10;;
73729;SDS011;62036;48.128;16.458;2023-03-31T04:08:09;5.38;;;1.98;;
73729;SDS011;62036;48.128;16.458;2023-03-31T04:10:35;3.03;;;1.98;;
73729;SDS011;62036;48.128;16.458;2023-03-31T04:13:01;3.85;;;2.10;;
73729;SDS011;62036;48.128;16.458;2023-03-31T04:15:27;4.82;;;2.38;;
73729;SDS011;62036;48.128;16.458;2023-03-31T04:17:53;5.60;;;2.80;;
73729;SDS011;62036;48.128;16.458;2023-03-31T04:20:21;6.18;;;2.53;;
73729;SDS011;62036;48.128;16.458;2023-03-31T04:22:51;4.53;;;2.40;;
73729;SDS011;62036;48.128;16.458;2023-03-31T04:25:18;4.70;;;2.83;;
73729;SDS011;62036;48.128;16.458;2023-03-31T04:27:47;4.65;;;3.15;;
73729;SDS011;62036;48.128;16.458;2023-03-31T04:30:20;4.32;;;2.65;;
73729;SDS011;62036;48.128;16.458;2023-03-31T04:32:49;7.57;;;3.05;;
73729;SDS011;62036;48.128;16.458;2023-03-31T04:35:17;4.70;;;2.85;;
73729;SDS011;62036;48.128;16.458;2023-03-31T04:37:44;3.88;;;2.70;;
73729;SDS011;62036;48.128;16.458;2023-03-31T04:40:10;4.20;;;2.70;;
73729;SDS011;62036;48.128;16.458;2023-03-31T04:42:36;4.43;;;2.65;;
73729;SDS011;62036;48.128;16.458;2023-03-31T04:45:02;5.40;;;2.95;;
73729;SDS011;62036;48.128;16.458;2023-03-31T04:47:28;4.43;;;2.30;;
73729;SDS011;62036;48.128;16.458;2023-03-31T04:49:55;5.63;;;2.47;;
73729;SDS011;62036;48.128;16.458;2023-03-31T04:52:21;4.55;;;3.00;;
73729;SDS011;62036;48.128;16.458;2023-03-31T04:54:47;5.78;;;3.10;;
73729;SDS011;62036;48.128;16.458;2023-03-31T04:57:13;7.05;;;2.70;;
73729;SDS011;62036;48.128;16.458;2023-03-31T04:59:39;4.28;;;2.42;;
73729;SDS011;62036;48.128;16.458;2023-03-31T05:02:05;5.82;;;2.75;;
73729;SDS011;62036;48.128;16.458;2023-03-31T05:04:31;4.95;;;2.47;;
73729;SDS011;62036;48.128;16.458;2023-03-31T05:06:57;4.43;;;2.42;;
73729;SDS011;62036;48.128;16.458;2023-03-31T05:09:23;6.35;;;2.92;;
73729;SDS011;62036;48.128;16.458;2023-03-31T05:11:49;3.80;;;2.35;;
73729;SDS011;62036;48.128;16.458;2023-03-31T05:14:15;3.30;;;2.50;;
73729;SDS011;62036;48.128;16.458;2023-03-31T05:16:41;6.07;;;2.80;;
73729;SDS011;62036;48.128;16.458;2023-03-31T05:19:08;4.63;;;2.53;;
73729;SDS011;62036;48.128;16.458;2023-03-31T05:21:34;3.08;;;2.28;;
73729;SDS011;62036;48.128;16.458;2023-03-31T05:24:02;5.00;;;2.28;;
73729;SDS011;62036;48.128;16.458;2023-03-31T05:26:28;3.20;;;1.92;;
73729;SDS011;62036;48.128;16.458;2023-03-31T05:28:55;4.53;;;2.40;;
73729;SDS011;62036;48.128;16.458;2023-03-31T05:31:21;5.20;;;2.90;;
73729;SDS011;62036;48.128;16.458;2023-03-31T05:33:47;3.53;;;2.35;;
73729;SDS011;62036;48.128;16.458;2023-03-31T05:36:14;6.53;;;2.85;;
73729;SDS011;62036;48.128;16.458;2023-03-31T05:38:40;3.72;;;2.15;;
73729;SDS011;62036;48.128;16.458;2023-03-31T05:41:07;4.20;;;2.10;;
73729;SDS011;62036;48.128;16.458;2023-03-31T05:43:33;3.05;;;2.20;;
73729;SDS011;62036;48.128;16.458;2023-03-31T05:45:59;3.30;;;2.10;;
73729;SDS011;62036;48.128;16.458;2023-03-31T05:48:26;4.50;;;2.30;;
73729;SDS011;62036;48.128;16.458;2023-03-31T05:50:58;4.78;;;2.30;;
73729;SDS011;62036;48.128;16.458;2023-03-31T05:53:25;2.38;;;1.80;;
73729;SDS011;62036;48.128;16.458;2023-03-31T05:56:00;2.85;;;1.60;;
73729;SDS011;62036;48.128;16.458;2023-03-31T05:58:27;4.55;;;1.90;;
73729;SDS011;62036;48.128;16.458;2023-03-31T06:01:00;3.22;;;2.00;;
73729;SDS011;62036;48.128;16.458;2023-03-31T06:03:26;2.97;;;2.40;;
73729;SDS011;62036;48.128;16.458;2023-03-31T06:05:52;5.35;;;1.80;;
73729;SDS011;62036;48.128;16.458;2023-03-31T06:08:19;3.20;;;1.77;;
73729;SDS011;62036;48.128;16.458;2023-03-31T06:10:45;2.75;;;1.63;;
73729;SDS011;62036;48.128;16.458;2023-03-31T06:13:11;3.15;;;1.98;;
73729;SDS011;62036;48.128;16.458;2023-03-31T06:15:37;2.58;;;1.85;;
73729;SDS011;62036;48.128;16.458;2023-03-31T06:18:03;3.05;;;1.60;;
73729;SDS011;62036;48.128;16.458;2023-03-31T06:20:31;3.72;;;1.65;;
73729;SDS011;62036;48.128;16.458;2023-03-31T06:22:57;3.03;;;1.52;;
73729;SDS011;62036;48.128;16.458;2023-03-31T06:25:23;5.25;;;1.95;;
73729;SDS011;62036;48.128;16.458;2023-03-31T06:27:49;5.43;;;1.90;;
73729;SDS011;62036;48.128;16.458;2023-03-31T06:30:15;4.65;;;1.70;;
73729;SDS011;62036;48.128;16.458;2023-03-31T06:32:41;3.10;;;1.48;;
73729;SDS011;62036;48.128;16.458;2023-03-31T06:35:07;2.33;;;1.65;;
73729;SDS011;62036;48.128;16.458;2023-03-31T06:37:34;4.10;;;1.63;;
73729;SDS011;62036;48.128;16.458;2023-03-31T06:40:00;3.13;;;2.03;;
73729;SDS011;62036;48.128;16.458;2023-03-31T06:42:26;2.92;;;1.50;;
73729;SDS011;62036;48.128;16.458;2023-03-31T06:44:52;3.30;;;1.60;;
73729;SDS011;62036;48.128;16.458;2023-03-31T06:47:19;3.33;;;2.13;;
73729;SDS011;62036;48.128;16.458;2023-03-31T06:49:45;4.38;;;1.65;;
73729;SDS011;62036;48.128;16.458;2023-03-31T06:52:11;4.25;;;1.90;;
73729;SDS011;62036;48.128;16.458;2023-03-31T06:54:38;3.22;;;1.80;;
73729;SDS011;62036;48.128;16.458;2023-03-31T06:57:04;5.07;;;1.65;;
73729;SDS011;62036;48.128;16.458;2023-03-31T06:59:30;2.25;;;1.30;;
73729;SDS011;62036;48.128;16.458;2023-03-31T07:01:56;2.53;;;1.40;;
73729;SDS011;62036;48.128;16.458;2023-03-31T07:04:22;2.53;;;1.88;;
73729;SDS011;62036;48.128;16.458;2023-03-31T07:06:48;3.78;;;1.65;;
73729;SDS011;62036;48.128;16.458;2023-03-31T07:09:15;3.58;;;1.63;;
73729;SDS011;62036;48.128;16.458;2023-03-31T07:11:42;2.13;;;1.30;;
73729;SDS011;62036;48.128;16.458;2023-03-31T07:14:08;2.72;;;1.30;;
73729;SDS011;62036;48.128;16.458;2023-03-31T07:16:34;2.58;;;1.35;;
73729;SDS011;62036;48.128;16.458;2023-03-31T07:19:00;2.72;;;1.38;;
73729;SDS011;62036;48.128;16.458;2023-03-31T07:21:27;4.40;;;1.60;;
73729;SDS011;62036;48.128;16.458;2023-03-31T07:23:53;2.90;;;1.45;;
73729;SDS011;62036;48.128;16.458;2023-03-31T07:26:20;2.05;;;1.38;;
73729;SDS011;62036;48.128;16.458;2023-03-31T07:28:46;1.80;;;1.40;;
73729;SDS011;62036;48.128;16.458;2023-03-31T07:31:12;4.05;;;1.50;;
73729;SDS011;62036;48.128;16.458;2023-03-31T07:33:39;3.60;;;1.67;;
73729;SDS011;62036;48.128;16.458;2023-03-31T07:36:05;2.35;;;1.40;;
73729;SDS011;62036;48.128;16.458;2023-03-31T07:38:31;3.10;;;1.75;;
73729;SDS011;62036;48.128;16.458;2023-03-31T07:40:57;3.17;;;1.50;;
73729;SDS011;62036;48.128;16.458;2023-03-31T07:43:23;3.92;;;1.63;;
73729;SDS011;62036;48.128;16.458;2023-03-31T07:45:50;3.30;;;1.73;;
73729;SDS011;62036;48.128;16.458;2023-03-31T07:48:16;2.25;;;1.40;;
73729;SDS011;62036;48.128;16.458;2023-03-31T07:50:42;3.78;;;1.52;;
73729;SDS011;62036;48.128;16.458;2023-03-31T07:53:08;4.45;;;1.40;;
73729;SDS011;62036;48.128;16.458;2023-03-31T07:55:34;4.20;;;1.70;;
73729;SDS011;62036;48.128;16.458;2023-03-31T07:58:01;2.53;;;1.30;;
73729;SDS011;62036;48.128;16.458;2023-03-31T08:00:27;4.65;;;1.70;;
73729;SDS011;62036;48.128;16.458;2023-03-31T08:02:54;3.55;;;1.60;;
73729;SDS011;62036;48.128;16.458;2023-03-31T08:05:20;4.40;;;1.40;;
73729;SDS011;62036;48.128;16.458;2023-03-31T08:07:47;2.55;;;1.40;;
73729;SDS011;62036;48.128;16.458;2023-03-31T08:10:15;2.45;;;1.77;;
73729;SDS011;62036;48.128;16.458;2023-03-31T08:12:42;4.32;;;1.75;;
73729;SDS011;62036;48.128;16.458;2023-03-31T08:15:08;5.03;;;2.10;;
73729;SDS011;62036;48.128;16.458;2023-03-31T08:17:34;2.92;;;1.63;;
73729;SDS011;62036;48.128;16.458;2023-03-31T08:20:00;4.18;;;1.83;;
73729;SDS011;62036;48.128;16.458;2023-03-31T08:22:28;4.22;;;2.03;;
73729;SDS011;62036;48.128;16.458;2023-03-31T08:24:54;4.32;;;2.00;;
73729;SDS011;62036;48.128;16.458;2023-03-31T08:27:20;7.03;;;1.70;;
73729;SDS011;62036;48.128;16.458;2023-03-31T08:29:46;2.05;;;1.35;;
73729;SDS011;62036;48.128;16.458;2023-03-31T08:32:13;3.28;;;1.50;;
73729;SDS011;62036;48.128;16.458;2023-03-31T08:34:40;4.00;;;2.08;;
73729;SDS011;62036;48.128;16.458;2023-03-31T08:37:07;4.85;;;2.08;;
73729;SDS011;62036;48.128;16.458;2023-03-31T08:39:33;3.30;;;1.67;;
73729;SDS011;62036;48.128;16.458;2023-03-31T08:43:04;3.17;;;1.70;;
73729;SDS011;62036;48.128;16.458;2023-03-31T08:47:32;6.03;;;1.80;;
73729;SDS011;62036;48.128;16.458;2023-03-31T08:50:09;3.67;;;1.80;;
73729;SDS011;62036;48.128;16.458;2023-03-31T08:52:38;3.47;;;1.90;;
73729;SDS011;62036;48.128;16.458;2023-03-31T08:55:12;3.95;;;2.00;;
73729;SDS011;62036;48.128;16.458;2023-03-31T09:00:39;3.40;;;1.70;;
73729;SDS011;62036;48.128;16.458;2023-03-31T09:03:10;2.75;;;2.10;;
73729;SDS011;62036;48.128;16.458;2023-03-31T09:05:50;3.75;;;1.80;;
73729;SDS011;62036;48.128;16.458;2023-03-31T09:10:57;2.78;;;1.65;;
73729;SDS011;62036;48.128;16.458;2023-03-31T09:15:57;4.50;;;1.70;;
73729;SDS011;62036;48.128;16.458;2023-03-31T09:18:31;2.53;;;1.70;;
73729;SDS011;62036;48.128;16.458;2023-03-31T09:21:42;3.65;;;1.88;;
73729;SDS011;62036;48.128;16.458;2023-03-31T09:26:26;3.88;;;2.00;;
73729;SDS011;62036;48.128;16.458;2023-03-31T09:28:55;3.85;;;2.00;;
73729;SDS011;62036;48.128;16.458;2023-03-31T09:31:23;4.25;;;1.80;;
73729;SDS011;62036;48.128;16.458;2023-03-31T09:33:50;3.28;;;1.77;;
73729;SDS011;62036;48.128;16.458;2023-03-31T09:36:18;2.22;;;1.90;;
73729;SDS011;62036;48.128;16.458;2023-03-31T09:38:46;3.70;;;1.90;;
73729;SDS011;62036;48.128;16.458;2023-03-31T09:41:13;3.50;;;1.67;;
73729;SDS011;62036;48.128;16.458;2023-03-31T09:43:40;3.72;;;2.20;;
73729;SDS011;62036;48.128;16.458;2023-03-31T09:48:49;4.53;;;2.00;;
73729;SDS011;62036;48.128;16.458;2023-03-31T09:51:22;2.75;;;1.83;;
73729;SDS011;62036;48.128;16.458;2023-03-31T09:53:53;2.97;;;1.95;;
73729;SDS011;62036;48.128;16.458;2023-03-31T09:59:11;1.85;;;1.33;;
73729;SDS011;62036;48.128;16.458;2023-03-31T10:01:37;4.15;;;2.03;;
73729;SDS011;62036;48.128;16.458;2023-03-31T10:04:03;4.80;;;2.30;;
73729;SDS011;62036;48.128;16.458;2023-03-31T10:06:32;3.17;;;1.80;;
73729;SDS011;62036;48.128;16.458;2023-03-31T10:09:05;3.67;;;1.95;;
73729;SDS011;62036;48.128;16.458;2023-03-31T10:11:31;2.85;;;2.22;;
73729;SDS011;62036;48.128;16.458;2023-03-31T10:13:58;4.32;;;1.85;;
73729;SDS011;62036;48.128;16.458;2023-03-31T10:16:31;3.25;;;2.28;;
73729;SDS011;62036;48.128;16.458;2023-03-31T10:21:38;4.28;;;1.85;;
73729;SDS011;62036;48.128;16.458;2023-03-31T10:24:08;3.90;;;2.15;;
73729;SDS011;62036;48.128;16.458;2023-03-31T10:26:34;4.28;;;2.00;;
73729;SDS011;62036;48.128;16.458;2023-03-31T10:29:01;2.95;;;2.08;;
73729;SDS011;62036;48.128;16.458;2023-03-31T10:31:34;3.25;;;2.42;;
73729;SDS011;62036;48.128;16.458;2023-03-31T10:34:08;21.30;;;19.10;;
73729;SDS011;62036;48.128;16.458;2023-03-31T10:36:39;76.40;;;58.47;;
73729;SDS011;62036;48.128;16.458;2023-03-31T10:39:10;39.35;;;32.13;;
73729;SDS011;62036;48.128;16.458;2023-03-31T10:41:39;8.38;;;4.82;;
73729;SDS011;62036;48.128;16.458;2023-03-31T10:44:06;6.40;;;3.58;;
73729;SDS011;62036;48.128;16.458;2023-03-31T10:46:48;4.20;;;3.03;;
73729;SDS011;62036;48.128;16.458;2023-03-31T10:51:51;4.63;;;3.08;;
73729;SDS011;62036;48.128;16.458;2023-03-31T10:54:17;3.55;;;2.55;;
73729;SDS011;62036;48.128;16.458;2023-03-31T11:04:15;5.07;;;3.13;;
73729;SDS011;62036;48.128;16.458;2023-03-31T11:20:55;4.00;;;2.92;;
73729;SDS011;62036;48.128;16.458;2023-03-31T11:25:48;4.10;;;2.40;;
73729;SDS011;62036;48.128;16.458;2023-03-31T11:30:49;4.05;;;2.20;;
73729;SDS011;62036;48.128;16.458;2023-03-31T11:41:27;3.58;;;2.10;;
73729;SDS011;62036;48.128;16.458;2023-03-31T11:43:56;3.35;;;2.45;;
73729;SDS011;62036;48.128;16.458;2023-03-31T11:46:31;5.55;;;3.08;;
73729;SDS011;62036;48.128;16.458;2023-03-31T11:48:58;2.70;;;1.98;;
73729;SDS011;62036;48.128;16.458;2023-03-31T11:53:52;3.90;;;1.88;;
73729;SDS011;62036;48.128;16.458;2023-03-31T11:56:19;6.50;;;3.00;;
73729;SDS011;62036;48.128;16.458;2023-03-31T11:58:53;3.42;;;2.05;;
73729;SDS011;62036;48.128;16.458;2023-03-31T12:06:51;6.65;;;2.13;;
73729;SDS011;62036;48.128;16.458;2023-03-31T12:09:29;4.22;;;1.73;;
73729;SDS011;62036;48.128;16.458;2023-03-31T12:14:31;1.83;;;1.70;;
73729;SDS011;62036;48.128;16.458;2023-03-31T12:17:07;4.13;;;1.88;;
73729;SDS011;62036;48.128;16.458;2023-03-31T12:19:39;5.65;;;1.83;;
73729;SDS011;62036;48.128;16.458;2023-03-31T12:24:35;1.70;;;1.40;;
73729;SDS011;62036;48.128;16.458;2023-03-31T12:27:04;4.07;;;1.70;;
73729;SDS011;62036;48.128;16.458;2023-03-31T12:29:35;1.67;;;1.42;;
73729;SDS011;62036;48.128;16.458;2023-03-31T12:34:29;3.60;;;1.88;;
73729;SDS011;62036;48.128;16.458;2023-03-31T12:47:36;2.72;;;1.85;;
73729;SDS011;62036;48.128;16.458;2023-03-31T12:57:41;4.00;;;1.75;;
73729;SDS011;62036;48.128;16.458;2023-03-31T13:02:35;2.83;;;1.70;;
73729;SDS011;62036;48.128;16.458;2023-03-31T13:05:44;2.08;;;1.20;;
73729;SDS011;62036;48.128;16.458;2023-03-31T13:07:50;3.15;;;1.67;;
73729;SDS011;62036;48.128;16.458;2023-03-31T13:13:04;2.20;;;1.50;;
73729;SDS011;62036;48.128;16.458;2023-03-31T13:15:29;3.22;;;1.40;;
73729;SDS011;62036;48.128;16.458;2023-03-31T13:17:59;2.30;;;1.17;;
73729;SDS011;62036;48.128;16.458;2023-03-31T13:20:30;3.45;;;1.75;;
73729;SDS011;62036;48.128;16.458;2023-03-31T13:23:13;2.72;;;1.40;;
73729;SDS011;62036;48.128;16.458;2023-03-31T13:28:14;2.28;;;1.60;;
73729;SDS011;62036;48.128;16.458;2023-03-31T13:35:36;3.90;;;1.63;;
73729;SDS011;62036;48.128;16.458;2023-03-31T13:50:56;2.65;;;1.67;;
73729;SDS011;62036;48.128;16.458;2023-03-31T13:55:53;3.10;;;1.45;;
73729;SDS011;62036;48.128;16.458;2023-03-31T14:08:49;2.80;;;1.50;;
73729;SDS011;62036;48.128;16.458;2023-03-31T14:11:21;1.65;;;1.30;;
73729;SDS011;62036;48.128;16.458;2023-03-31T14:14:10;1.98;;;1.40;;
73729;SDS011;62036;48.128;16.458;2023-03-31T14:16:37;3.17;;;1.40;;
73729;SDS011;62036;48.128;16.458;2023-03-31T14:19:08;2.58;;;1.13;;
73729;SDS011;62036;48.128;16.458;2023-03-31T14:21:41;2.33;;;1.48;;
73729;SDS011;62036;48.128;16.458;2023-03-31T14:24:21;3.28;;;1.45;;
73729;SDS011;62036;48.128;16.458;2023-03-31T14:37:09;1.10;;;0.90;;
73729;SDS011;62036;48.128;16.458;2023-03-31T14:39:39;2.35;;;1.02;;
73729;SDS011;62036;48.128;16.458;2023-03-31T14:42:10;1.70;;;1.10;;
73729;SDS011;62036;48.128;16.458;2023-03-31T14:44:38;2.35;;;1.30;;
73729;SDS011;62036;48.128;16.458;2023-03-31T14:47:10;2.25;;;1.13;;
73729;SDS011;62036;48.128;16.458;2023-03-31T14:49:37;2.38;;;1.27;;
73729;SDS011;62036;48.128;16.458;2023-03-31T14:52:12;1.58;;;1.20;;
73729;SDS011;62036;48.128;16.458;2023-03-31T14:54:38;2.10;;;1.33;;
73729;SDS011;62036;48.128;16.458;2023-03-31T14:57:05;3.17;;;1.13;;
73729;SDS011;62036;48.128;16.458;2023-03-31T14:59:32;1.27;;;1.02;;
73729;SDS011;62036;48.128;16.458;2023-03-31T15:01:59;1.83;;;1.40;;
73729;SDS011;62036;48.128;16.458;2023-03-31T15:04:29;3.22;;;1.20;;
73729;SDS011;62036;48.128;16.458;2023-03-31T15:06:55;1.50;;;1.30;;
73729;SDS011;62036;48.128;16.458;2023-03-31T15:09:25;3.75;;;1.23;;
73729;SDS011;62036;48.128;16.458;2023-03-31T15:11:53;1.30;;;1.02;;
73729;SDS011;62036;48.128;16.458;2023-03-31T15:14:20;4.35;;;1.10;;
73729;SDS011;62036;48.128;16.458;2023-03-31T15:16:48;1.55;;;1.10;;
73729;SDS011;62036;48.128;16.458;2023-03-31T15:19:24;2.13;;;1.70;;
73729;SDS011;62036;48.128;16.458;2023-03-31T15:24:20;2.25;;;0.57;;
73729;SDS011;62036;48.128;16.458;2023-03-31T15:29:16;1.77;;;0.90;;
73729;SDS011;62036;48.128;16.458;2023-03-31T15:31:45;2.58;;;0.70;;
73729;SDS011;62036;48.128;16.458;2023-03-31T15:34:45;1.15;;;0.85;;
73729;SDS011;62036;48.128;16.458;2023-03-31T15:37:07;1.52;;;0.73;;
73729;SDS011;62036;48.128;16.458;2023-03-31T15:39:33;0.73;;;0.50;;
73729;SDS011;62036;48.128;16.458;2023-03-31T15:42:04;1.85;;;0.50;;
73729;SDS011;62036;48.128;16.458;2023-03-31T15:44:44;1.38;;;0.40;;
73729;SDS011;62036;48.128;16.458;2023-03-31T15:47:20;3.50;;;0.60;;
73729;SDS011;62036;48.128;16.458;2023-03-31T15:52:37;0.60;;;0.55;;
73729;SDS011;62036;48.128;16.458;2023-03-31T15:57:51;1.20;;;0.50;;
73729;SDS011;62036;48.128;16.458;2023-03-31T16:03:01;1.58;;;0.70;;
73729;SDS011;62036;48.128;16.458;2023-03-31T16:05:39;0.68;;;0.55;;
73729;SDS011;62036;48.128;16.458;2023-03-31T16:08:09;0.95;;;0.60;;
73729;SDS011;62036;48.128;16.458;2023-03-31T16:10:37;2.33;;;0.93;;
73729;SDS011;62036;48.128;16.458;2023-03-31T16:13:05;1.33;;;0.60;;
73729;SDS011;62036;48.128;16.458;2023-03-31T16:15:36;1.20;;;0.60;;
73729;SDS011;62036;48.128;16.458;2023-03-31T16:20:34;0.82;;;0.60;;
73729;SDS011;62036;48.128;16.458;2023-03-31T16:25:29;2.72;;;1.20;;
73729;SDS011;62036;48.128;16.458;2023-03-31T16:28:01;2.10;;;1.00;;
73729;SDS011;62036;48.128;16.458;2023-03-31T16:30:35;4.00;;;1.40;;
73729;SDS011;62036;48.128;16.458;2023-03-31T16:33:02;2.15;;;1.10;;
73729;SDS011;62036;48.128;16.458;2023-03-31T16:35:29;2.30;;;1.88;;
73729;SDS011;62036;48.128;16.458;2023-03-31T16:37:56;2.15;;;1.58;;
73729;SDS011;62036;48.128;16.458;2023-03-31T16:40:23;1.67;;;1.20;;
73729;SDS011;62036;48.128;16.458;2023-03-31T16:43:05;2.65;;;1.90;;
73729;SDS011;62036;48.128;16.458;2023-03-31T16:45:31;2.10;;;1.80;;
73729;SDS011;62036;48.128;16.458;2023-03-31T16:47:57;2.42;;;1.30;;
73729;SDS011;62036;48.128;16.458;2023-03-31T16:50:23;3.28;;;1.67;;
73729;SDS011;62036;48.128;16.458;2023-03-31T16:52:49;3.15;;;1.38;;
73729;SDS011;62036;48.128;16.458;2023-03-31T16:55:15;2.80;;;1.45;;
73729;SDS011;62036;48.128;16.458;2023-03-31T16:57:41;1.77;;;1.00;;
73729;SDS011;62036;48.128;16.458;2023-03-31T17:00:09;3.08;;;1.65;;
73729;SDS011;62036;48.128;16.458;2023-03-31T17:02:35;1.90;;;1.42;;
73729;SDS011;62036;48.128;16.458;2023-03-31T17:05:07;3.00;;;1.58;;
73729;SDS011;62036;48.128;16.458;2023-03-31T17:09:59;2.78;;;1.30;;
73729;SDS011;62036;48.128;16.458;2023-03-31T17:12:25;2.40;;;1.40;;
73729;SDS011;62036;48.128;16.458;2023-03-31T17:14:51;3.70;;;2.42;;
73729;SDS011;62036;48.128;16.458;2023-03-31T17:17:18;2.83;;;2.03;;
73729;SDS011;62036;48.128;16.458;2023-03-31T17:19:44;1.40;;;1.00;;
73729;SDS011;62036;48.128;16.458;2023-03-31T17:22:10;3.03;;;0.90;;
73729;SDS011;62036;48.128;16.458;2023-03-31T17:24:36;1.38;;;1.25;;
73729;SDS011;62036;48.128;16.458;2023-03-31T17:27:02;2.08;;;1.10;;
73729;SDS011;62036;48.128;16.458;2023-03-31T17:29:28;2.90;;;1.00;;
73729;SDS011;62036;48.128;16.458;2023-03-31T17:31:54;1.42;;;0.93;;
73729;SDS011;62036;48.128;16.458;2023-03-31T17:34:21;3.05;;;1.13;;
73729;SDS011;62036;48.128;16.458;2023-03-31T17:36:47;5.25;;;2.28;;
73729;SDS011;62036;48.128;16.458;2023-03-31T17:39:14;1.13;;;0.80;;
73729;SDS011;62036;48.128;16.458;2023-03-31T17:41:40;1.75;;;1.02;;
73729;SDS011;62036;48.128;16.458;2023-03-31T17:44:06;1.60;;;0.90;;
73729;SDS011;62036;48.128;16.458;2023-03-31T17:46:33;2.80;;;1.05;;
73729;SDS011;62036;48.128;16.458;2023-03-31T17:48:59;1.33;;;0.88;;
73729;SDS011;62036;48.128;16.458;2023-03-31T17:51:25;4.35;;;1.10;;
73729;SDS011;62036;48.128;16.458;2023-03-31T17:53:52;2.50;;;1.05;;
73729;SDS011;62036;48.128;16.458;2023-03-31T17:56:18;4.22;;;1.27;;
73729;SDS011;62036;48.128;16.458;2023-03-31T17:58:44;2.58;;;0.90;;
73729;SDS011;62036;48.128;16.458;2023-03-31T18:01:11;1.77;;;0.88;;
73729;SDS011;62036;48.128;16.458;2023-03-31T18:03:37;1.15;;;0.77;;
73729;SDS011;62036;48.128;16.458;2023-03-31T18:06:07;1.58;;;0.82;;
73729;SDS011;62036;48.128;16.458;2023-03-31T18:11:01;2.00;;;1.45;;
73729;SDS011;62036;48.128;16.458;2023-03-31T18:13:29;2.67;;;1.80;;